Hiko, Nevada
Current Conditions -  °F | °C
As of 10:58 AM on Monday 20 Oct 2014 (Local Time) from KINS Reporting Station
Clear Clear  
Wind Chill: 73°   Ceiling: Unl
Heat Index: 73°   Visibility: 10mi
Dew Point: 34°   Wind: 0mph
Humidity: 24%   Direction: NA
Pressure: 29.99"   Gusts: NA
Location:  37.6°N, 115.23°W
Report Text: KINS 201758Z AUTO 00000KT 10SM CLR 23/01 A2999 RMK AO2 SLP118 T02300011 10230 20097 50003
Loading
Personal Weather Stations






























Interactive Weather Map New forecast layout! Learn more

10-Day Weather Forecast

Advertisements
Track Severe Weather on mobile